createdAt,value
2022-10-18T00:00:06.454Z,78.93
2022-10-18T00:02:35.267Z,78.82
2022-10-18T00:05:02.099Z,78.35
2022-10-18T00:07:29.063Z,78.82
2022-10-18T00:09:56.052Z,78.36
2022-10-18T00:12:22.965Z,78.83
2022-10-18T00:14:51.011Z,78.26
2022-10-18T00:17:18.375Z,78.55
2022-10-18T00:19:46.635Z,78.56
2022-10-18T00:22:13.526Z,78.34
2022-10-18T00:24:40.332Z,78.70
2022-10-18T00:27:07.259Z,77.68
2022-10-18T00:29:34.084Z,77.57
2022-10-18T00:32:00.800Z,79.19
2022-10-18T00:34:27.562Z,78.68
2022-10-18T00:36:55.125Z,78.16
2022-10-18T00:39:22.257Z,78.63
2022-10-18T00:41:49.616Z,78.22
2022-10-18T00:44:16.392Z,77.77
2022-10-18T00:46:47.557Z,77.42
2022-10-18T00:49:19.656Z,77.00
2022-10-18T00:51:51.281Z,77.12
2022-10-18T00:54:19.528Z,78.30
2022-10-18T00:56:46.715Z,78.34
2022-10-18T00:59:15.547Z,77.88
2022-10-18T01:01:42.437Z,78.11
2022-10-18T01:04:09.220Z,78.04
2022-10-18T01:06:53.816Z,77.71
2022-10-18T01:09:44.971Z,78.80
2022-10-18T01:12:43.779Z,78.65
2022-10-18T01:15:24.866Z,78.38
2022-10-18T01:17:51.638Z,78.29
2022-10-18T01:20:52.425Z,77.37
2022-10-18T01:23:31.743Z,78.46
2022-10-18T01:26:30.296Z,78.44
2022-10-18T01:29:31.442Z,77.91
2022-10-18T01:32:04.099Z,77.90
2022-10-18T01:34:34.237Z,77.23
2022-10-18T01:37:03.449Z,77.63
2022-10-18T01:39:33.807Z,78.43
2022-10-18T01:42:02.546Z,77.77
2022-10-18T01:44:31.259Z,77.64
2022-10-18T01:46:58.694Z,77.83
2022-10-18T01:49:26.806Z,78.44
2022-10-18T01:51:54.112Z,77.70
2022-10-18T01:54:26.084Z,76.98
2022-10-18T01:57:08.788Z,77.71
2022-10-18T01:59:57.256Z,76.99
2022-10-18T02:02:48.507Z,76.45
2022-10-18T02:05:35.053Z,76.80
2022-10-18T02:08:19.328Z,77.42
2022-10-18T02:11:09.587Z,76.95
2022-10-18T02:13:40.620Z,76.17
2022-10-18T02:16:11.348Z,77.79
2022-10-18T02:18:42.694Z,76.10
2022-10-18T02:21:11.598Z,77.16
2022-10-18T02:23:39.008Z,77.45
2022-10-18T02:26:06.460Z,77.09
2022-10-18T02:28:33.238Z,77.25
2022-10-18T02:31:27.177Z,77.10
2022-10-18T02:33:58.286Z,77.14
2022-10-18T02:36:29.255Z,76.38
2022-10-18T02:39:00.626Z,76.45
2022-10-18T02:41:28.159Z,76.83
2022-10-18T02:43:54.911Z,77.52
2022-10-18T02:46:21.833Z,77.47
2022-10-18T02:48:48.817Z,76.85
2022-10-18T02:51:15.750Z,76.69
2022-10-18T02:53:42.656Z,76.89
2022-10-18T02:56:09.471Z,76.57
2022-10-18T02:58:36.235Z,77.99
2022-10-18T03:01:03.181Z,77.92
2022-10-18T03:03:29.891Z,77.16
2022-10-18T03:05:56.700Z,77.65
2022-10-18T03:08:23.418Z,76.70
2022-10-18T03:10:50.143Z,77.80
2022-10-18T03:13:16.927Z,78.04
2022-10-18T03:15:43.801Z,77.78
2022-10-18T03:18:10.571Z,77.47
2022-10-18T03:20:37.384Z,78.36
2022-10-18T03:23:04.072Z,78.44
2022-10-18T03:25:30.921Z,78.47
2022-10-18T03:27:57.668Z,78.52
2022-10-18T03:30:24.615Z,79.21
2022-10-18T03:32:51.448Z,78.91
2022-10-18T03:35:18.357Z,78.31
2022-10-18T03:37:45.131Z,79.65
2022-10-18T03:40:11.955Z,80.85
2022-10-18T03:42:38.795Z,80.48
2022-10-18T03:45:06.125Z,80.63
2022-10-18T03:47:32.841Z,81.58
2022-10-18T03:49:59.594Z,82.27
2022-10-18T03:52:26.272Z,83.38
2022-10-18T03:54:53.079Z,82.33
2022-10-18T03:57:19.768Z,83.29
2022-10-18T03:59:48.708Z,84.40
2022-10-18T04:02:15.556Z,83.89
2022-10-18T04:04:42.328Z,85.22
2022-10-18T04:07:09.585Z,85.71
2022-10-18T04:09:36.347Z,86.21
2022-10-18T04:12:03.155Z,86.00
2022-10-18T04:14:29.940Z,86.07
2022-10-18T04:16:56.727Z,84.11
2022-10-18T04:19:23.540Z,84.19
2022-10-18T04:21:50.294Z,83.24
2022-10-18T04:24:18.053Z,83.65
2022-10-18T04:26:44.817Z,84.17
2022-10-18T04:29:11.823Z,84.03
2022-10-18T04:31:38.681Z,83.42
2022-10-18T04:34:05.524Z,84.29
2022-10-18T04:36:32.350Z,83.95
2022-10-18T04:38:59.094Z,84.92
2022-10-18T04:41:25.812Z,84.13
2022-10-18T04:43:52.554Z,85.05
2022-10-18T04:46:19.303Z,84.56
2022-10-18T04:48:46.076Z,83.93
2022-10-18T04:51:12.836Z,84.54
2022-10-18T04:53:39.670Z,84.57
2022-10-18T04:56:06.805Z,84.46
2022-10-18T04:58:33.617Z,84.73
2022-10-18T05:01:00.397Z,86.46
2022-10-18T05:03:27.244Z,85.10
2022-10-18T05:06:02.579Z,85.60
2022-10-18T05:08:31.459Z,85.25
2022-10-18T05:10:58.319Z,85.32
2022-10-18T05:13:25.530Z,84.72
2022-10-18T05:15:52.442Z,85.62
2022-10-18T05:18:19.313Z,85.79
2022-10-18T05:20:46.695Z,85.59
2022-10-18T05:23:13.422Z,85.95
2022-10-18T05:25:43.677Z,86.52
2022-10-18T05:28:27.160Z,86.07
2022-10-18T05:31:02.524Z,86.19
2022-10-18T05:33:29.572Z,86.73
2022-10-18T05:35:56.308Z,85.04
2022-10-18T05:38:23.688Z,86.24
2022-10-18T05:40:50.602Z,86.51
2022-10-18T05:43:20.450Z,86.77
2022-10-18T05:45:51.097Z,86.44
2022-10-18T05:48:18.134Z,86.80
2022-10-18T05:50:45.272Z,86.86
2022-10-18T05:53:18.570Z,87.00
2022-10-18T05:56:02.846Z,87.38
2022-10-18T05:58:29.735Z,86.48
2022-10-18T06:00:59.929Z,86.76
2022-10-18T06:03:27.805Z,88.27
2022-10-18T06:06:00.197Z,88.18
2022-10-18T06:08:27.023Z,88.43
2022-10-18T06:10:53.794Z,88.12
2022-10-18T06:13:20.586Z,89.02
2022-10-18T06:15:47.348Z,89.16
2022-10-18T06:18:14.070Z,89.27
2022-10-18T06:20:40.822Z,87.86
2022-10-18T06:23:07.814Z,88.34
2022-10-18T06:25:34.530Z,88.70
2022-10-18T06:28:01.277Z,88.86
2022-10-18T06:30:27.972Z,88.90
2022-10-18T06:32:54.636Z,87.07
2022-10-18T06:35:21.387Z,87.47
2022-10-18T06:37:48.124Z,88.77
2022-10-18T06:40:14.895Z,89.21
2022-10-18T06:42:43.547Z,88.73
2022-10-18T06:45:11.501Z,87.28
2022-10-18T06:47:38.248Z,89.42
2022-10-18T06:50:05.254Z,89.13
2022-10-18T06:52:32.189Z,90.45
2022-10-18T06:54:59.054Z,90.84
2022-10-18T06:57:25.770Z,91.37
2022-10-18T06:59:52.579Z,91.05
2022-10-18T07:02:19.367Z,91.05
2022-10-18T07:04:46.093Z,91.50
2022-10-18T07:07:12.808Z,90.97
2022-10-18T07:09:40.406Z,90.68
2022-10-18T07:12:07.249Z,90.39
2022-10-18T07:14:34.024Z,90.62
2022-10-18T07:17:00.808Z,89.30
2022-10-18T07:19:27.640Z,90.39
2022-10-18T07:21:54.465Z,90.51
2022-10-18T07:24:21.382Z,89.70
2022-10-18T07:26:48.176Z,90.77
2022-10-18T07:29:15.086Z,89.23
2022-10-18T07:31:41.974Z,89.55
2022-10-18T07:34:11.708Z,89.05
2022-10-18T07:36:38.592Z,89.94
2022-10-18T07:39:05.536Z,89.55
2022-10-18T07:41:33.921Z,89.15
2022-10-18T07:44:01.204Z,88.52
2022-10-18T07:46:27.963Z,90.25
2022-10-18T07:48:55.331Z,89.51
2022-10-18T07:51:22.395Z,89.19
2022-10-18T07:53:49.607Z,89.38
2022-10-18T07:56:21.039Z,89.90
2022-10-18T07:58:51.423Z,89.14
2022-10-18T08:01:18.951Z,89.24
2022-10-18T08:03:45.808Z,89.17
2022-10-18T08:06:15.202Z,88.38
2022-10-18T08:08:42.526Z,88.44
2022-10-18T08:11:14.793Z,88.04
2022-10-18T08:13:41.755Z,88.11
2022-10-18T08:16:12.170Z,88.30
2022-10-18T08:18:39.593Z,88.07
2022-10-18T08:21:08.779Z,88.23
2022-10-18T08:23:36.087Z,88.61
2022-10-18T08:26:07.967Z,87.73
2022-10-18T08:28:37.840Z,86.62
2022-10-18T08:31:06.355Z,86.88
2022-10-18T08:36:27.307Z,85.93
2022-10-18T08:38:54.012Z,87.12
2022-10-18T08:41:48.835Z,86.32
2022-10-18T08:44:28.469Z,86.00
2022-10-18T08:47:07.253Z,85.80
2022-10-18T08:49:46.284Z,86.37
2022-10-18T08:52:31.055Z,85.99
2022-10-18T08:55:09.940Z,86.02
2022-10-18T08:57:36.716Z,85.98
2022-10-18T09:00:24.024Z,85.81
2022-10-18T09:03:12.726Z,84.67
2022-10-18T09:06:05.543Z,84.38
2022-10-18T09:08:36.579Z,84.47
2022-10-18T09:11:22.133Z,83.51
2022-10-18T09:14:13.817Z,83.75
2022-10-18T09:17:18.051Z,83.13
2022-10-18T09:20:09.901Z,82.02
2022-10-18T09:23:05.262Z,82.64
2022-10-18T09:25:56.379Z,82.85
2022-10-18T09:28:29.544Z,83.09
2022-10-18T09:31:12.296Z,82.55
2022-10-18T09:33:56.787Z,82.24
2022-10-18T09:36:26.561Z,82.32
2022-10-18T09:39:00.538Z,82.45
2022-10-18T09:41:36.037Z,81.50
2022-10-18T09:44:09.273Z,80.44
2022-10-18T09:46:42.847Z,81.03
2022-10-18T09:49:22.516Z,81.25
2022-10-18T09:51:50.907Z,81.41
2022-10-18T09:54:28.556Z,81.31
2022-10-18T09:57:17.047Z,81.49
2022-10-18T09:59:47.075Z,80.27
2022-10-18T10:02:16.761Z,79.99
2022-10-18T10:04:43.787Z,80.09
2022-10-18T10:07:41.911Z,79.28
2022-10-18T10:10:16.619Z,79.18
2022-10-18T10:12:44.057Z,80.16
2022-10-18T10:15:18.067Z,79.98
2022-10-18T10:18:05.383Z,80.44
2022-10-18T10:20:47.107Z,80.35
2022-10-18T10:23:37.940Z,80.89
2022-10-18T10:26:14.454Z,79.57
2022-10-18T10:28:48.696Z,79.53
2022-10-18T10:31:24.677Z,79.60
2022-10-18T10:34:04.644Z,79.52
2022-10-18T10:36:32.678Z,78.98
2022-10-18T10:39:13.783Z,79.71
2022-10-18T10:41:40.628Z,79.54
2022-10-18T10:44:35.241Z,79.48
2022-10-18T10:47:02.256Z,78.75
2022-10-18T10:49:40.668Z,78.30
2022-10-18T10:52:27.384Z,78.85
2022-10-18T10:55:05.902Z,78.00
2022-10-18T10:57:45.968Z,78.91
2022-10-18T11:00:34.215Z,78.33
2022-10-18T11:03:27.863Z,77.92
2022-10-18T11:05:56.064Z,78.13
2022-10-18T11:08:25.837Z,78.03
2022-10-18T11:11:22.931Z,77.34
2022-10-18T11:14:13.283Z,78.34
2022-10-18T11:16:54.113Z,77.42
2022-10-18T11:19:47.893Z,77.62
2022-10-18T11:22:18.460Z,77.34
2022-10-18T11:24:45.247Z,76.94
2022-10-18T11:27:28.674Z,76.65
2022-10-18T11:30:23.612Z,77.27
2022-10-18T11:32:57.684Z,77.11
2022-10-18T11:35:40.497Z,76.12
2022-10-18T11:38:19.286Z,76.69
2022-10-18T11:40:48.980Z,76.61
2022-10-18T11:44:01.209Z,75.09
2022-10-18T11:46:40.879Z,74.21
2022-10-18T11:49:32.239Z,74.89
2022-10-18T11:52:15.972Z,73.72
2022-10-18T11:54:55.369Z,73.90
2022-10-18T11:57:45.956Z,74.40
2022-10-18T12:02:59.669Z,74.06
2022-10-18T12:05:27.551Z,73.47
2022-10-18T12:08:26.287Z,74.64
2022-10-18T12:11:04.939Z,73.06
2022-10-18T12:13:35.920Z,72.90
2022-10-18T12:16:04.473Z,73.57
2022-10-18T12:18:32.480Z,71.17
2022-10-18T12:21:00.006Z,71.93
2022-10-18T12:23:29.786Z,70.51
2022-10-18T12:26:03.970Z,68.58
2022-10-18T12:28:46.166Z,66.94
2022-10-18T12:31:20.970Z,65.61
2022-10-18T12:33:55.641Z,63.08
2022-10-18T12:36:22.343Z,61.34
2022-10-18T12:38:55.446Z,59.87
2022-10-18T12:41:26.808Z,61.32
2022-10-18T12:44:15.622Z,62.65
2022-10-18T12:46:53.881Z,61.72
2022-10-18T12:49:28.642Z,60.41
2022-10-18T12:52:01.677Z,58.41
2022-10-18T12:54:32.645Z,54.66
2022-10-18T12:57:00.151Z,52.84
2022-10-18T12:59:26.967Z,54.84
2022-10-18T13:01:53.902Z,54.12
2022-10-18T13:04:32.390Z,50.87
2022-10-18T13:07:05.069Z,50.74
2022-10-18T13:09:36.969Z,53.40
2022-10-18T13:12:09.682Z,60.04
2022-10-18T13:15:13.459Z,59.18
2022-10-18T13:17:50.165Z,51.71
2022-10-18T13:20:39.207Z,52.31
2022-10-18T13:23:24.802Z,49.59
2022-10-18T13:25:58.619Z,54.34
2022-10-18T13:28:47.163Z,54.79
2022-10-18T13:31:23.759Z,51.38
2022-10-18T13:33:50.832Z,52.62
2022-10-18T13:36:22.580Z,53.07
2022-10-18T13:38:50.500Z,53.45
2022-10-18T13:43:54.407Z,56.06
2022-10-18T13:46:33.172Z,61.08
2022-10-18T13:49:00.902Z,54.84
2022-10-18T13:51:38.719Z,52.99
2022-10-18T13:54:31.628Z,49.20
2022-10-18T13:57:04.342Z,48.96
2022-10-18T13:59:46.099Z,50.39
2022-10-18T14:02:50.957Z,47.17
2022-10-18T14:05:37.976Z,47.42
2022-10-18T14:08:43.321Z,47.85
2022-10-18T14:11:33.779Z,45.27
2022-10-18T14:14:38.189Z,46.01
2022-10-18T14:17:15.384Z,45.32
2022-10-18T14:19:49.506Z,45.99
2022-10-18T14:22:19.160Z,47.42
2022-10-18T14:24:53.985Z,46.69
2022-10-18T14:27:21.501Z,45.38
2022-10-18T14:29:49.109Z,46.15
2022-10-18T14:32:24.173Z,48.58
2022-10-18T14:34:51.155Z,49.16
2022-10-18T14:37:25.729Z,48.42
2022-10-18T14:39:52.469Z,51.41
2022-10-18T14:42:24.478Z,53.13
2022-10-18T14:44:54.446Z,51.28
2022-10-18T14:47:25.135Z,50.21
2022-10-18T14:49:54.473Z,50.40
2022-10-18T14:52:29.412Z,51.66
2022-10-18T14:54:58.489Z,53.72
2022-10-18T14:57:31.995Z,54.93
2022-10-18T15:00:04.221Z,53.56
2022-10-18T15:02:33.446Z,53.28
2022-10-18T15:05:10.026Z,53.94
2022-10-18T15:07:37.260Z,56.29
2022-10-18T15:10:04.978Z,56.57
2022-10-18T15:12:36.918Z,56.93
2022-10-18T15:15:21.570Z,60.26
2022-10-18T15:17:49.666Z,61.42
2022-10-18T15:20:22.815Z,61.77
2022-10-18T15:22:49.758Z,62.41
2022-10-18T15:25:20.937Z,61.77
2022-10-18T15:27:50.025Z,61.01
2022-10-18T15:30:25.415Z,63.50
2022-10-18T15:32:55.303Z,64.23
2022-10-18T15:35:30.712Z,64.67
2022-10-18T15:38:14.334Z,64.83
2022-10-18T15:40:41.828Z,64.25
2022-10-18T15:43:23.841Z,63.83
2022-10-18T15:45:58.707Z,64.53
2022-10-18T15:48:32.042Z,65.38
2022-10-18T15:51:06.189Z,65.97
2022-10-18T15:53:36.509Z,67.68
2022-10-18T15:56:21.571Z,66.66
2022-10-18T15:58:49.033Z,67.48
2022-10-18T16:01:21.660Z,69.32
2022-10-18T16:03:48.776Z,69.34
2022-10-18T16:06:18.211Z,69.71
2022-10-18T16:08:52.783Z,70.29
2022-10-18T17:21:27.936Z,74.59
2022-10-18T17:23:55.329Z,75.26
2022-10-18T17:26:28.955Z,75.17
2022-10-18T17:29:00.031Z,74.29
2022-10-18T17:31:27.934Z,74.37
2022-10-18T17:33:55.419Z,76.18
2022-10-18T17:36:22.764Z,75.82
2022-10-18T17:38:56.198Z,76.81
2022-10-18T17:41:23.492Z,76.23
2022-10-18T17:43:50.348Z,76.18
2022-10-18T17:46:18.089Z,76.11
2022-10-18T17:48:45.413Z,76.62
2022-10-18T17:51:15.039Z,76.62
2022-10-18T17:53:41.953Z,76.13
2022-10-18T17:56:11.722Z,76.28
2022-10-18T17:58:38.626Z,76.98
2022-10-18T18:01:12.402Z,76.69
2022-10-18T18:03:39.594Z,77.05
2022-10-18T18:06:16.986Z,75.55
2022-10-18T18:08:44.697Z,77.43
2022-10-18T18:11:11.478Z,77.49
2022-10-18T18:13:38.334Z,77.67
2022-10-18T18:16:31.383Z,77.24
2022-10-18T18:18:59.039Z,77.31
2022-10-18T18:21:26.409Z,77.33
2022-10-18T18:23:53.885Z,76.22
2022-10-18T18:26:24.052Z,77.03
2022-10-18T18:28:51.232Z,76.05
2022-10-18T18:31:23.540Z,77.91
2022-10-18T18:33:51.553Z,77.81
2022-10-18T18:36:18.637Z,77.95
2022-10-18T18:38:45.806Z,78.24
2022-10-18T18:41:17.433Z,77.99
2022-10-18T18:43:49.727Z,77.25
2022-10-18T18:46:16.530Z,77.59
2022-10-18T18:48:43.256Z,79.07
2022-10-18T18:51:15.819Z,79.98
2022-10-18T18:53:43.884Z,79.54
2022-10-18T18:56:14.222Z,79.82
2022-10-18T18:58:43.959Z,79.57
2022-10-18T19:01:17.199Z,79.72
2022-10-18T19:03:45.293Z,78.78
2022-10-18T19:06:20.581Z,79.96
2022-10-18T19:08:47.795Z,79.50
2022-10-18T19:11:16.983Z,80.03
2022-10-18T19:13:44.166Z,79.33
2022-10-18T19:16:29.793Z,79.24
2022-10-18T19:19:15.088Z,79.72
2022-10-18T19:21:44.863Z,79.16
2022-10-18T19:27:16.719Z,79.91
2022-10-18T19:29:44.068Z,80.08
2022-10-18T19:32:13.006Z,80.52
2022-10-18T19:34:40.011Z,81.02
2022-10-18T19:37:06.798Z,81.29
2022-10-18T19:39:34.747Z,80.17
2022-10-18T19:42:06.789Z,79.18
2022-10-18T19:44:36.157Z,80.49
2022-10-18T19:47:07.434Z,80.45
2022-10-18T19:49:34.954Z,81.47
2022-10-18T19:52:03.171Z,81.20
2022-10-18T19:54:31.439Z,82.02
2022-10-18T19:56:59.596Z,82.02
2022-10-18T19:59:27.397Z,83.13
2022-10-18T20:01:55.042Z,82.57
2022-10-18T20:04:21.973Z,81.93
2022-10-18T20:06:49.447Z,81.98
2022-10-18T20:09:19.734Z,81.82
2022-10-18T20:11:48.059Z,81.96
2022-10-18T20:14:14.919Z,81.81
2022-10-18T20:16:41.711Z,81.88
2022-10-18T20:19:09.457Z,82.88
2022-10-18T20:21:36.675Z,82.68
2022-10-18T20:24:06.854Z,83.36
2022-10-18T20:26:34.562Z,83.11
2022-10-18T20:29:01.379Z,82.91
2022-10-18T20:31:35.556Z,82.30
2022-10-18T20:34:04.414Z,82.87
2022-10-18T20:36:32.370Z,82.80
2022-10-18T20:38:59.477Z,82.34
2022-10-18T20:41:34.766Z,83.10
2022-10-18T20:44:04.374Z,83.35
2022-10-18T20:46:32.830Z,82.28
2022-10-18T20:48:59.937Z,82.70
2022-10-18T20:51:27.023Z,82.01
2022-10-18T20:53:53.913Z,81.93
2022-10-18T20:56:23.064Z,81.62
2022-10-18T20:58:51.851Z,82.25
2022-10-18T21:01:23.817Z,82.17
2022-10-18T21:03:52.112Z,83.05
2022-10-18T21:06:30.390Z,81.92
2022-10-18T21:09:05.262Z,82.84
2022-10-18T21:11:36.164Z,81.84
2022-10-18T21:14:03.886Z,81.67
2022-10-18T21:16:32.386Z,82.30
2022-10-18T21:19:07.667Z,83.02
2022-10-18T21:21:35.099Z,83.44
2022-10-18T21:24:05.370Z,82.59
2022-10-18T21:26:34.915Z,83.95
2022-10-18T21:29:02.915Z,83.52
2022-10-18T21:31:32.038Z,83.67
2022-10-18T21:34:07.907Z,83.50
2022-10-18T21:36:36.251Z,83.88
2022-10-18T21:39:04.570Z,84.20
2022-10-18T21:41:31.979Z,84.25
2022-10-18T21:43:58.742Z,83.53
2022-10-18T21:46:26.991Z,84.35
2022-10-18T21:48:55.913Z,82.89
2022-10-18T21:51:24.794Z,83.55
2022-10-18T21:53:53.576Z,83.88
2022-10-18T21:56:26.215Z,84.20
2022-10-18T21:58:53.536Z,84.79
2022-10-18T22:01:24.421Z,84.99
2022-10-18T22:03:53.891Z,84.83
2022-10-18T22:06:21.135Z,84.31
2022-10-18T22:08:50.634Z,83.77
2022-10-18T22:11:19.411Z,84.56
2022-10-18T22:13:46.912Z,84.51
2022-10-18T22:16:15.351Z,85.72
2022-10-18T22:18:43.187Z,88.29
2022-10-18T22:21:11.815Z,87.75
2022-10-18T22:23:47.652Z,87.86
2022-10-18T22:26:24.178Z,87.91
2022-10-18T22:29:08.763Z,87.27
2022-10-18T22:31:36.999Z,87.38
2022-10-18T22:34:11.817Z,86.22
2022-10-18T22:36:39.325Z,82.80
2022-10-18T22:39:06.979Z,83.82
2022-10-18T22:41:35.084Z,83.99
2022-10-18T22:44:03.643Z,84.33
2022-10-18T22:46:31.692Z,83.41
2022-10-18T22:48:58.410Z,83.23
2022-10-18T22:51:25.219Z,84.64
2022-10-18T22:53:52.001Z,84.13
2022-10-18T22:56:21.280Z,83.31
2022-10-18T22:58:50.924Z,82.79
2022-10-18T23:01:20.390Z,82.69
2022-10-18T23:03:47.490Z,83.29
2022-10-18T23:06:25.238Z,79.50
2022-10-18T23:08:53.096Z,81.01
2022-10-18T23:11:20.029Z,85.11
2022-10-18T23:13:47.311Z,85.24
2022-10-18T23:16:14.505Z,83.58
2022-10-18T23:18:41.554Z,85.15
2022-10-18T23:21:10.550Z,86.52
2022-10-18T23:23:40.013Z,86.82
2022-10-18T23:26:09.060Z,86.12
2022-10-18T23:28:37.427Z,84.20
2022-10-18T23:31:27.657Z,83.53
2022-10-18T23:33:57.291Z,84.18
2022-10-18T23:36:25.324Z,84.01
2022-10-18T23:38:53.038Z,84.59
2022-10-18T23:41:20.087Z,84.72
2022-10-18T23:43:47.023Z,85.13
2022-10-18T23:46:15.364Z,84.20
2022-10-18T23:48:42.111Z,84.93
2022-10-18T23:51:09.258Z,83.95
2022-10-18T23:53:36.339Z,84.40
2022-10-18T23:56:08.651Z,84.93
2022-10-18T23:58:36.153Z,84.04
